createdAt,value
2023-08-15T00:00:10.910Z,7.23
2023-08-15T00:02:41.065Z,3.20
2023-08-15T00:05:10.454Z,4.00
2023-08-15T00:07:39.220Z,6.97
2023-08-15T00:10:08.972Z,11.93
2023-08-15T00:12:37.681Z,3.63
2023-08-15T00:15:07.752Z,5.20
2023-08-15T00:17:36.488Z,5.00
2023-08-15T00:20:07.910Z,3.20
2023-08-15T00:22:36.703Z,5.07
2023-08-15T00:25:05.839Z,5.77
2023-08-15T00:27:34.566Z,42.90
2023-08-15T00:30:03.337Z,3.63
2023-08-15T00:32:37.123Z,4.60
2023-08-15T00:35:08.173Z,3.77
2023-08-15T00:37:37.367Z,9.63
2023-08-15T00:40:07.229Z,6.20
2023-08-15T00:42:35.998Z,2.80
2023-08-15T00:45:04.910Z,8.00
2023-08-15T00:47:33.676Z,7.40
2023-08-15T00:50:03.953Z,6.63
2023-08-15T00:52:34.701Z,3.63
2023-08-15T00:55:04.284Z,7.90
2023-08-15T00:57:33.349Z,2.80
2023-08-15T01:00:02.145Z,5.47
2023-08-15T01:02:32.640Z,22.13
2023-08-15T01:05:01.560Z,6.87
2023-08-15T01:07:30.368Z,4.17
2023-08-15T01:10:00.562Z,3.83
2023-08-15T01:12:33.902Z,3.80
2023-08-15T01:15:08.520Z,5.00
2023-08-15T01:17:43.384Z,6.03
2023-08-15T01:20:17.997Z,4.93
2023-08-15T01:22:49.247Z,8.87
2023-08-15T01:25:19.476Z,9.23
2023-08-15T01:27:48.263Z,7.10
2023-08-15T01:30:17.458Z,5.97
2023-08-15T01:32:53.266Z,4.77
2023-08-15T01:35:26.732Z,3.87
2023-08-15T01:38:01.193Z,4.43
2023-08-15T01:40:34.777Z,5.10
2023-08-15T01:43:05.121Z,8.63
2023-08-15T01:45:35.424Z,5.67
2023-08-15T01:48:04.450Z,3.80
2023-08-15T01:50:33.251Z,8.70
2023-08-15T01:53:01.972Z,11.20
2023-08-15T01:55:32.288Z,6.13
2023-08-15T01:58:00.997Z,6.13
2023-08-15T02:00:29.720Z,5.10
2023-08-15T02:02:58.423Z,5.87
2023-08-15T02:05:27.283Z,5.07
2023-08-15T02:07:55.974Z,7.47
2023-08-15T02:10:24.745Z,5.93
2023-08-15T02:12:54.871Z,9.00
2023-08-15T02:15:23.652Z,11.23
2023-08-15T02:17:52.460Z,6.00
2023-08-15T02:20:21.437Z,13.63
2023-08-15T02:22:50.150Z,5.13
2023-08-15T02:25:19.242Z,6.40
2023-08-15T02:27:48.008Z,7.23
2023-08-15T02:30:18.217Z,4.83
2023-08-15T02:32:46.996Z,6.03
2023-08-15T02:35:15.796Z,7.80
2023-08-15T02:37:44.562Z,7.10
2023-08-15T02:40:14.327Z,8.33
2023-08-15T02:42:43.032Z,9.90
2023-08-15T02:45:12.172Z,6.23
2023-08-15T02:47:42.330Z,5.27
2023-08-15T02:50:11.480Z,7.33
2023-08-15T02:52:40.318Z,7.10
2023-08-15T02:55:09.830Z,8.40
2023-08-15T02:57:39.242Z,6.10
2023-08-15T03:00:10.052Z,11.87
2023-08-15T03:02:39.039Z,5.90
2023-08-15T03:05:09.805Z,7.30
2023-08-15T03:07:38.562Z,8.90
2023-08-15T03:10:07.766Z,6.53
2023-08-15T03:12:36.523Z,5.87
2023-08-15T03:15:05.792Z,7.97
2023-08-15T03:17:36.363Z,6.93
2023-08-15T03:20:05.832Z,5.87
2023-08-15T03:22:35.975Z,7.00
2023-08-15T03:25:04.857Z,6.23
2023-08-15T03:27:33.638Z,5.33
2023-08-15T03:30:02.399Z,5.63
2023-08-15T03:32:31.162Z,8.73
2023-08-15T03:34:59.861Z,9.50
2023-08-15T03:37:28.610Z,10.00
2023-08-15T03:39:58.779Z,8.90
2023-08-15T03:42:27.541Z,9.60
2023-08-15T03:44:56.303Z,5.50
2023-08-15T03:47:25.096Z,8.20
2023-08-15T03:49:54.180Z,9.10
2023-08-15T03:52:22.956Z,5.60
2023-08-15T03:54:51.679Z,6.37
2023-08-15T03:57:22.114Z,8.37
2023-08-15T03:59:51.116Z,9.77
2023-08-15T04:02:20.144Z,8.97
2023-08-15T04:04:48.917Z,8.10
2023-08-15T04:07:17.761Z,5.60
2023-08-15T04:09:46.517Z,6.53
2023-08-15T04:12:15.273Z,6.43
2023-08-15T04:14:45.441Z,8.13
2023-08-15T04:17:14.162Z,11.80
2023-08-15T04:19:42.930Z,11.50
2023-08-15T04:22:11.670Z,6.63
2023-08-15T04:24:40.498Z,12.70
2023-08-15T04:27:09.482Z,14.80
2023-08-15T04:29:38.246Z,11.10
2023-08-15T04:34:50.083Z,7.00
2023-08-15T04:37:19.348Z,6.80
2023-08-15T04:39:48.682Z,6.47
2023-08-15T04:42:17.419Z,13.90
2023-08-15T04:44:46.380Z,9.07
2023-08-15T04:47:17.085Z,6.43
2023-08-15T04:49:47.100Z,10.77
2023-08-15T04:52:18.309Z,7.83
2023-08-15T04:54:48.613Z,6.60
2023-08-15T04:57:17.360Z,6.63
2023-08-15T04:59:46.282Z,11.43
2023-08-15T05:02:15.107Z,9.90
2023-08-15T05:04:43.886Z,9.17
2023-08-15T05:07:13.504Z,10.53
2023-08-15T05:12:30.577Z,8.67
2023-08-15T05:14:59.686Z,4.83
2023-08-15T05:17:31.543Z,5.00
2023-08-15T05:20:01.055Z,6.03
2023-08-15T05:22:42.089Z,5.77
2023-08-15T05:25:12.682Z,4.10
2023-08-15T05:27:41.478Z,5.20
2023-08-15T05:30:11.663Z,9.20
2023-08-15T05:32:40.901Z,10.40
2023-08-15T05:35:10.253Z,5.40
2023-08-15T05:37:39.085Z,10.50
2023-08-15T05:40:08.982Z,6.37
2023-08-15T05:42:39.220Z,4.07
2023-08-15T05:45:09.177Z,7.00
2023-08-15T05:47:38.358Z,4.90
2023-08-15T05:50:09.066Z,7.83
2023-08-15T05:52:38.581Z,5.27
2023-08-15T05:55:08.372Z,8.40
2023-08-15T05:57:38.909Z,9.13
2023-08-15T06:00:12.098Z,8.60
2023-08-15T06:02:42.151Z,8.00
2023-08-15T06:05:11.139Z,9.43
2023-08-15T06:07:42.317Z,6.60
2023-08-15T06:10:11.544Z,6.03
2023-08-15T06:12:42.364Z,6.90
2023-08-15T06:15:11.634Z,12.40
2023-08-15T06:17:40.715Z,9.10
2023-08-15T06:20:11.503Z,6.40
2023-08-15T06:22:40.462Z,7.23
2023-08-15T06:25:10.000Z,5.23
2023-08-15T06:27:40.307Z,5.57
2023-08-15T06:30:10.303Z,10.93
2023-08-15T06:32:39.177Z,15.40
2023-08-15T06:35:09.365Z,5.77
2023-08-15T06:37:38.141Z,5.17
2023-08-15T06:40:09.574Z,4.70
2023-08-15T06:42:38.379Z,6.77
2023-08-15T06:45:12.873Z,12.20
2023-08-15T06:47:41.971Z,11.13
2023-08-15T06:50:11.307Z,10.30
2023-08-15T06:52:40.416Z,10.10
2023-08-15T06:55:09.681Z,7.70
2023-08-15T06:57:39.733Z,5.17
2023-08-15T07:00:16.710Z,9.10
2023-08-15T07:02:45.631Z,6.47
2023-08-15T07:05:15.121Z,12.57
2023-08-15T07:07:44.854Z,8.10
2023-08-15T07:10:14.545Z,7.73
2023-08-15T07:12:44.565Z,5.90
2023-08-15T07:15:17.404Z,5.30
2023-08-15T07:17:46.690Z,8.23
2023-08-15T07:20:17.597Z,6.80
2023-08-15T07:22:46.682Z,7.10
2023-08-15T07:25:16.366Z,12.43
2023-08-15T07:27:45.532Z,12.17
2023-08-15T07:30:17.288Z,11.60
2023-08-15T07:32:46.520Z,7.37
2023-08-15T07:35:15.333Z,9.60
2023-08-15T07:37:44.206Z,6.77
2023-08-15T07:40:20.561Z,6.90
2023-08-15T07:42:51.078Z,16.10
2023-08-15T07:45:22.483Z,8.67
2023-08-15T07:47:53.094Z,9.70
2023-08-15T07:50:24.017Z,12.00
2023-08-15T07:52:53.550Z,13.13
2023-08-15T07:55:23.304Z,8.67
2023-08-15T07:57:54.613Z,10.00
2023-08-15T08:00:25.002Z,7.03
2023-08-15T08:02:55.013Z,6.90
2023-08-15T08:05:25.160Z,14.83
2023-08-15T08:07:54.158Z,12.13
2023-08-15T08:10:23.149Z,6.93
2023-08-15T08:12:52.287Z,10.83
2023-08-15T08:15:24.529Z,11.03
2023-08-15T08:17:55.474Z,7.10
2023-08-15T08:20:24.515Z,7.73
2023-08-15T08:22:53.329Z,7.93
2023-08-15T08:25:25.892Z,6.47
2023-08-15T08:27:55.729Z,7.57
2023-08-15T08:30:32.776Z,8.00
2023-08-15T08:33:05.121Z,5.43
2023-08-15T08:35:34.919Z,9.30
2023-08-15T08:38:05.120Z,10.03
2023-08-15T08:40:34.917Z,6.73
2023-08-15T08:43:04.582Z,6.03
2023-08-15T08:45:36.283Z,12.93
2023-08-15T08:48:11.879Z,15.00
2023-08-15T08:50:41.057Z,9.77
2023-08-15T08:53:09.953Z,19.27
2023-08-15T08:55:38.927Z,12.17
2023-08-15T08:58:12.499Z,7.80
2023-08-15T09:00:43.334Z,8.03
2023-08-15T09:03:17.698Z,9.47
2023-08-15T09:05:46.964Z,9.83
2023-08-15T09:08:16.652Z,8.40
2023-08-15T09:10:45.894Z,7.13
2023-08-15T09:13:22.821Z,8.13
2023-08-15T09:15:52.361Z,9.10
2023-08-15T09:18:24.260Z,7.40
2023-08-15T09:20:53.374Z,6.07
2023-08-15T09:23:22.223Z,7.73
2023-08-15T09:25:55.541Z,11.13
2023-08-15T09:28:25.151Z,9.23
2023-08-15T09:30:54.703Z,11.43
2023-08-15T09:33:25.015Z,5.90
2023-08-15T09:35:59.127Z,12.60
2023-08-15T09:38:29.740Z,12.47
2023-08-15T09:40:59.164Z,13.83
2023-08-15T09:43:28.016Z,6.87
2023-08-15T09:45:57.452Z,9.13
2023-08-15T09:48:29.771Z,8.10
2023-08-15T09:50:59.062Z,11.33
2023-08-15T09:53:28.069Z,6.50
2023-08-15T09:55:57.092Z,9.93
2023-08-15T09:58:25.861Z,7.10
2023-08-15T10:00:55.996Z,12.93
2023-08-15T10:03:31.270Z,13.83
2023-08-15T10:06:00.782Z,11.80
2023-08-15T10:08:29.784Z,9.53
2023-08-15T10:11:00.987Z,6.67
2023-08-15T10:13:33.281Z,6.80
2023-08-15T10:16:05.187Z,17.03
2023-08-15T10:18:36.074Z,14.80
2023-08-15T10:21:05.319Z,7.50
2023-08-15T10:23:36.298Z,9.20
2023-08-15T10:26:05.402Z,7.20
2023-08-15T10:28:37.651Z,10.60
2023-08-15T10:31:06.837Z,9.80
2023-08-15T10:33:38.287Z,12.33
2023-08-15T10:36:11.122Z,7.13
2023-08-15T10:38:45.356Z,8.40
2023-08-15T10:41:18.932Z,7.00
2023-08-15T10:43:50.443Z,7.83
2023-08-15T10:46:20.731Z,6.87
2023-08-15T10:51:25.705Z,15.13
2023-08-15T10:53:56.251Z,8.00
2023-08-15T10:56:27.159Z,9.30
2023-08-15T10:58:56.425Z,9.57
2023-08-15T11:01:40.806Z,9.87
2023-08-15T11:04:15.371Z,7.27
2023-08-15T11:06:44.251Z,12.70
2023-08-15T11:09:13.090Z,7.90
2023-08-15T11:11:42.336Z,8.30
2023-08-15T11:14:18.507Z,8.60
2023-08-15T11:16:47.949Z,17.03
2023-08-15T11:19:19.776Z,9.40
2023-08-15T11:21:49.225Z,12.93
2023-08-15T11:24:18.156Z,7.47
2023-08-15T11:26:46.959Z,6.33
2023-08-15T11:29:16.707Z,12.80
2023-08-15T11:31:45.544Z,12.43
2023-08-15T11:34:14.528Z,11.23
2023-08-15T11:36:46.657Z,8.80
2023-08-15T11:39:15.878Z,12.53
2023-08-15T11:41:46.539Z,11.40
2023-08-15T11:44:15.304Z,9.13
2023-08-15T11:49:19.238Z,21.80
2023-08-15T11:51:49.436Z,11.67
2023-08-15T11:54:18.571Z,6.57
2023-08-15T11:56:51.187Z,9.03
2023-08-15T11:59:20.874Z,9.20
2023-08-15T12:01:51.168Z,11.00
2023-08-15T12:04:20.578Z,8.90
2023-08-15T12:06:52.600Z,6.73
2023-08-15T12:09:21.473Z,7.80
2023-08-15T12:11:55.290Z,19.07
2023-08-15T12:14:24.371Z,9.93
2023-08-15T12:16:53.358Z,7.50
2023-08-15T12:19:24.059Z,9.30
2023-08-15T12:21:55.416Z,9.60
2023-08-15T12:24:24.292Z,13.33
2023-08-15T12:26:53.129Z,8.83
2023-08-15T12:29:20.879Z,9.70
2023-08-15T12:32:09.672Z,7.17
2023-08-15T12:34:38.731Z,9.90
2023-08-15T12:37:09.930Z,10.00
2023-08-15T12:39:38.793Z,7.40
2023-08-15T12:42:08.480Z,10.00
2023-08-15T12:44:37.653Z,9.77
2023-08-15T12:47:06.766Z,17.57
2023-08-15T12:49:35.524Z,8.53
2023-08-15T12:52:04.592Z,8.40
2023-08-15T12:54:35.429Z,8.90
2023-08-15T12:57:04.389Z,10.60
2023-08-15T12:59:33.309Z,11.63
2023-08-15T13:02:02.178Z,14.13
2023-08-15T13:04:30.993Z,10.87
2023-08-15T13:07:00.380Z,12.37
2023-08-15T13:09:29.154Z,8.17
2023-08-15T13:11:59.461Z,7.60
2023-08-15T13:14:33.655Z,12.07
2023-08-15T13:17:02.858Z,8.30
2023-08-15T13:19:31.734Z,7.80
2023-08-15T13:22:00.712Z,8.50
2023-08-15T13:24:29.687Z,12.43
2023-08-15T13:26:59.821Z,9.83
2023-08-15T13:29:29.273Z,10.30
2023-08-15T13:31:58.767Z,10.23
2023-08-15T13:34:27.574Z,9.00
2023-08-15T13:36:56.642Z,11.60
2023-08-15T13:39:25.992Z,10.83
2023-08-15T13:41:54.836Z,12.23
2023-08-15T13:44:24.962Z,8.33
2023-08-15T13:46:53.915Z,11.03
2023-08-15T13:49:22.660Z,12.50
2023-08-15T13:51:51.466Z,10.73
2023-08-15T13:54:20.189Z,8.57
2023-08-15T13:56:48.944Z,14.20
2023-08-15T13:59:17.737Z,11.63
2023-08-15T14:01:48.184Z,18.83
2023-08-15T14:04:17.186Z,17.40
2023-08-15T14:06:45.884Z,10.53
2023-08-15T14:09:14.658Z,12.73
2023-08-15T14:11:45.224Z,21.00
2023-08-15T14:14:14.197Z,28.57
2023-08-15T14:16:42.981Z,9.10
2023-08-15T14:19:13.733Z,13.13
2023-08-15T14:21:42.424Z,9.53
2023-08-15T14:24:12.063Z,12.70
2023-08-15T14:26:40.751Z,15.10
2023-08-15T14:29:09.507Z,29.07
2023-08-15T14:31:38.214Z,18.63
2023-08-15T14:34:07.295Z,18.63
2023-08-15T14:36:37.662Z,15.80
2023-08-15T14:39:06.765Z,11.00
2023-08-15T14:41:35.505Z,13.90
2023-08-15T14:44:04.231Z,14.07
2023-08-15T14:46:33.030Z,11.90
2023-08-15T14:49:01.949Z,9.83
2023-08-15T14:51:30.869Z,10.27
2023-08-15T14:54:01.234Z,12.53
2023-08-15T14:56:29.967Z,10.03
2023-08-15T14:58:58.743Z,11.30
2023-08-15T15:01:27.495Z,10.67
2023-08-15T15:03:56.949Z,11.73
2023-08-15T15:06:25.830Z,10.13
2023-08-15T15:08:54.589Z,12.40
2023-08-15T15:11:24.812Z,11.73
2023-08-15T15:13:53.561Z,21.70
2023-08-15T15:16:22.435Z,13.20
2023-08-15T15:18:51.249Z,12.97
2023-08-15T15:21:20.019Z,20.63
2023-08-15T15:23:48.843Z,11.33
2023-08-15T15:26:17.643Z,23.07
2023-08-15T15:28:47.833Z,10.93
2023-08-15T15:31:16.642Z,9.43
2023-08-15T15:33:45.842Z,10.77
2023-08-15T15:36:14.708Z,15.60
2023-08-15T15:38:43.553Z,13.23
2023-08-15T15:41:12.474Z,11.53
2023-08-15T15:43:41.350Z,10.60
2023-08-15T15:46:11.657Z,10.80
2023-08-15T15:48:40.449Z,10.30
2023-08-15T15:51:09.193Z,16.67
2023-08-15T15:53:37.938Z,11.13
2023-08-15T15:56:07.169Z,12.97
2023-08-15T15:58:35.974Z,14.80
2023-08-15T16:01:04.780Z,14.60
2023-08-15T16:03:35.459Z,15.20
2023-08-15T16:06:04.606Z,13.40
2023-08-15T16:08:33.497Z,17.50
2023-08-15T16:11:02.208Z,11.03
2023-08-15T16:13:31.030Z,16.40
2023-08-15T16:15:59.859Z,14.40
2023-08-15T16:18:28.832Z,14.43
2023-08-15T16:20:59.161Z,21.30
2023-08-15T16:23:28.084Z,16.33
2023-08-15T16:25:56.764Z,12.13
2023-08-15T16:28:25.820Z,11.33
2023-08-15T16:30:54.562Z,13.00
2023-08-15T16:33:23.885Z,12.20
2023-08-15T16:35:52.616Z,12.33
2023-08-15T16:38:22.706Z,14.77
2023-08-15T16:40:51.354Z,17.80
2023-08-15T16:43:21.412Z,15.47
2023-08-15T16:45:50.073Z,13.93
2023-08-15T16:48:18.907Z,12.00
2023-08-15T16:50:47.704Z,9.53
2023-08-15T16:53:16.545Z,12.53
2023-08-15T16:55:47.593Z,11.60
2023-08-15T16:58:16.405Z,9.87
2023-08-15T17:00:45.143Z,16.60
2023-08-15T17:03:13.897Z,17.87
2023-08-15T17:05:42.676Z,14.37
2023-08-15T17:08:11.404Z,14.83
2023-08-15T17:10:40.282Z,11.13
2023-08-15T17:13:10.380Z,14.03
2023-08-15T17:15:39.102Z,13.50
2023-08-15T17:18:08.367Z,14.33
2023-08-15T17:20:37.086Z,9.47
2023-08-15T17:23:06.024Z,12.70
2023-08-15T17:25:34.740Z,15.70
2023-08-15T17:28:04.169Z,18.00
2023-08-15T17:30:34.334Z,11.00
2023-08-15T17:33:03.120Z,13.07
2023-08-15T17:35:31.893Z,10.33
2023-08-15T17:38:00.630Z,15.70
2023-08-15T17:40:29.401Z,15.27
2023-08-15T17:42:58.093Z,12.80
2023-08-15T17:45:27.021Z,10.27
2023-08-15T17:47:57.229Z,14.43
2023-08-15T17:50:26.088Z,19.23
2023-08-15T17:52:54.826Z,13.33
2023-08-15T17:55:25.468Z,13.87
2023-08-15T17:57:54.408Z,11.47
2023-08-15T18:00:23.460Z,14.23
2023-08-15T18:02:52.228Z,24.93
2023-08-15T18:05:22.587Z,13.13
2023-08-15T18:07:51.388Z,14.90
2023-08-15T18:10:20.504Z,14.90
2023-08-15T18:12:49.301Z,12.17
2023-08-15T18:15:18.184Z,14.10
2023-08-15T18:17:49.896Z,15.03
2023-08-15T18:20:19.058Z,13.83
2023-08-15T18:22:49.215Z,11.50
2023-08-15T18:25:18.181Z,12.60
2023-08-15T18:27:46.955Z,18.50
2023-08-15T18:30:16.278Z,15.73
2023-08-15T18:32:45.072Z,14.07
2023-08-15T18:35:13.845Z,15.00
2023-08-15T18:37:45.516Z,12.00
2023-08-15T18:40:17.803Z,21.87
2023-08-15T18:42:46.639Z,11.50
2023-08-15T18:45:27.339Z,19.20
2023-08-15T18:47:56.103Z,14.17
2023-08-15T18:50:24.928Z,15.90
2023-08-15T18:52:53.659Z,15.87
2023-08-15T18:55:23.820Z,13.03
2023-08-15T18:57:52.523Z,15.17
2023-08-15T19:00:22.161Z,14.77
2023-08-15T19:02:51.147Z,19.07
2023-08-15T19:05:19.956Z,16.70
2023-08-15T19:07:48.670Z,19.30
2023-08-15T19:10:17.415Z,14.80
2023-08-15T19:12:48.519Z,18.33
2023-08-15T19:15:19.687Z,15.07
2023-08-15T19:17:50.849Z,17.40
2023-08-15T19:20:21.780Z,21.40
2023-08-15T19:22:50.619Z,17.33
2023-08-15T19:25:19.458Z,23.43
2023-08-15T19:27:50.317Z,14.13
2023-08-15T19:30:19.052Z,15.23
2023-08-15T19:32:47.857Z,14.37
2023-08-15T19:35:16.809Z,21.73
2023-08-15T19:37:45.708Z,15.37
2023-08-15T19:40:14.856Z,15.17
2023-08-15T19:42:45.078Z,12.23
2023-08-15T19:45:16.088Z,14.30
2023-08-15T19:47:44.929Z,13.27
2023-08-15T19:50:13.695Z,14.10
2023-08-15T19:52:42.485Z,13.63
2023-08-15T19:55:11.936Z,14.63
2023-08-15T19:57:40.952Z,14.60
2023-08-15T20:00:11.729Z,15.60
2023-08-15T20:02:41.996Z,24.20
2023-08-15T20:05:11.294Z,17.00
2023-08-15T20:07:40.670Z,20.03
2023-08-15T20:10:12.649Z,14.63
2023-08-15T20:12:41.865Z,16.80
2023-08-15T20:15:11.496Z,14.33
2023-08-15T20:17:42.782Z,18.30
2023-08-15T20:20:12.808Z,17.93
2023-08-15T20:22:41.856Z,20.47
2023-08-15T20:25:11.378Z,12.23
2023-08-15T20:27:40.133Z,14.53
2023-08-15T20:30:10.654Z,19.87
2023-08-15T20:32:40.733Z,14.93
2023-08-15T20:35:11.240Z,22.13
2023-08-15T20:37:40.019Z,15.60
2023-08-15T20:40:10.605Z,18.90
2023-08-15T20:42:39.421Z,13.20
2023-08-15T20:45:11.026Z,18.50
2023-08-15T20:47:41.629Z,12.93
2023-08-15T20:50:10.772Z,12.43
2023-08-15T20:52:39.562Z,15.00
2023-08-15T20:55:10.764Z,20.33
2023-08-15T20:57:39.591Z,16.77
2023-08-15T21:00:09.694Z,16.10
2023-08-15T21:02:38.680Z,15.40
2023-08-15T21:05:10.452Z,23.33
2023-08-15T21:07:39.142Z,15.50
2023-08-15T21:10:09.079Z,15.93
2023-08-15T21:12:37.872Z,16.77
2023-08-15T21:15:07.508Z,15.83
2023-08-15T21:17:36.440Z,18.27
2023-08-15T21:20:05.930Z,22.33
2023-08-15T21:22:36.158Z,22.47
2023-08-15T21:25:04.996Z,21.83
2023-08-15T21:27:34.044Z,26.30
2023-08-15T21:30:02.783Z,14.47
2023-08-15T21:32:31.509Z,14.20
2023-08-15T21:35:00.443Z,19.70
2023-08-15T21:37:29.217Z,24.87
2023-08-15T21:39:59.423Z,18.97
2023-08-15T21:42:28.243Z,23.37
2023-08-15T21:44:57.001Z,16.70
2023-08-15T21:47:25.821Z,18.43
2023-08-15T21:49:54.915Z,15.30
2023-08-15T21:52:23.683Z,15.97
2023-08-15T21:54:52.422Z,18.20
2023-08-15T21:57:22.845Z,17.93
2023-08-15T21:59:51.784Z,14.73
2023-08-15T22:02:20.478Z,14.77
2023-08-15T22:04:49.236Z,20.50
2023-08-15T22:07:17.981Z,16.90
2023-08-15T22:09:46.702Z,15.30
2023-08-15T22:12:15.481Z,17.73
2023-08-15T22:14:45.631Z,15.60
2023-08-15T22:17:14.440Z,19.33
2023-08-15T22:19:43.208Z,18.87
2023-08-15T22:22:12.030Z,17.73
2023-08-15T22:24:44.056Z,23.00
2023-08-15T22:27:15.111Z,21.10
2023-08-15T22:29:45.242Z,18.07
2023-08-15T22:32:13.984Z,17.83
2023-08-15T22:34:42.677Z,23.53
2023-08-15T22:37:11.407Z,23.33
2023-08-15T22:39:40.130Z,22.47
2023-08-15T22:42:08.903Z,22.87
2023-08-15T22:44:37.718Z,16.87
2023-08-15T22:47:08.091Z,23.20
2023-08-15T22:49:36.880Z,20.20
2023-08-15T22:52:06.027Z,16.07
2023-08-15T22:54:35.291Z,23.33
2023-08-15T22:57:04.455Z,33.87
2023-08-15T22:59:33.170Z,22.07
2023-08-15T23:02:01.913Z,20.17
2023-08-15T23:04:32.181Z,20.23
2023-08-15T23:07:00.991Z,22.03
2023-08-15T23:09:29.784Z,20.27
2023-08-15T23:11:58.591Z,14.53
2023-08-15T23:14:27.318Z,24.30
2023-08-15T23:16:56.063Z,23.00
2023-08-15T23:19:24.858Z,17.07
2023-08-15T23:21:55.040Z,19.27
2023-08-15T23:24:24.344Z,16.70
2023-08-15T23:26:56.095Z,18.70
2023-08-15T23:29:24.866Z,25.63
2023-08-15T23:31:54.342Z,30.17
2023-08-15T23:34:23.070Z,24.37
2023-08-15T23:36:52.595Z,21.67
2023-08-15T23:39:22.784Z,26.50
2023-08-15T23:41:51.650Z,24.07
2023-08-15T23:44:20.787Z,19.47
2023-08-15T23:46:49.634Z,30.47
2023-08-15T23:49:18.599Z,27.80
2023-08-15T23:51:49.303Z,30.30
2023-08-15T23:54:18.193Z,27.13
2023-08-15T23:56:48.499Z,29.60
2023-08-15T23:59:17.235Z,20.33
